Time;durP1;ratioP1;P1;durP2;ratioP2;P2;SDS_P1;SDS_P2;PMS_P1;PMS_P2;Temp;Humidity;BMP_temperature;BMP_pressure;BME280_temperature;BME280_humidity;BME280_pressure;Samples;Min_cycle;Max_cycle;Signal;HPM_P1;HPM_P2
2022/11/23 00:02:56;;;;;;;1.85;0.40;;;;;;;10.51;96.27;98771.00;8322109;28;20033;-49
2022/11/23 00:06:56;;;;;;;5.03;0.65;;;;;;;10.56;95.94;98767.75;8322350;28;20063;-48
2022/11/23 00:10:58;;;;;;;5.32;0.70;;;;;;;10.60;95.82;98766.38;8320284;28;20034;-50
2022/11/23 00:14:58;;;;;;;0.80;0.50;;;;;;;10.60;95.64;98769.06;8321279;28;20052;-49
2022/11/23 00:19:00;;;;;;;2.90;0.60;;;;;;;10.65;95.27;98767.53;8321760;28;20124;-50
2022/11/23 00:23:00;;;;;;;3.08;0.47;;;;;;;10.65;95.77;98774.78;8312998;28;20423;-48
2022/11/23 00:27:01;;;;;;;0.40;0.30;;;;;;;10.53;96.68;98774.38;8321738;28;20033;-49
2022/11/23 00:31:02;;;;;;;2.75;0.90;;;;;;;10.54;97.21;98767.94;8323160;28;20041;-48
2022/11/23 00:35:03;;;;;;;5.72;1.17;;;;;;;10.58;96.69;98766.53;8322769;28;20056;-52
2022/11/23 00:39:04;;;;;;;7.07;0.57;;;;;;;10.58;96.59;98766.53;8323056;28;20040;-48
2022/11/23 00:43:05;;;;;;;1.67;0.50;;;;;;;10.55;96.75;98776.91;8323854;28;20071;-48
2022/11/23 00:47:06;;;;;;;1.10;0.50;;;;;;;10.50;97.64;98785.56;8322957;28;20053;-49
2022/11/23 00:51:11;;;;;;;1.65;0.60;;;;;;;10.48;97.42;98776.78;8323010;28;20049;-49
2022/11/23 00:55:13;;;;;;;2.65;0.73;;;;;;;10.47;97.95;98782.38;8322551;28;20041;-49
2022/11/23 00:59:14;;;;;;;2.72;0.60;;;;;;;10.50;97.88;98782.00;8322589;28;20511;-51
2022/11/23 01:03:15;;;;;;;2.53;0.40;;;;;;;10.57;97.04;98781.09;8321760;28;20518;-50
2022/11/23 01:07:16;;;;;;;3.75;0.90;;;;;;;10.51;97.35;98789.94;8287342;28;20045;-49
2022/11/23 01:11:17;;;;;;;2.85;0.80;;;;;;;10.55;97.47;98801.22;8296155;28;20072;-49
2022/11/23 01:15:18;;;;;;;3.75;0.70;;;;;;;10.50;97.45;98796.38;8320493;28;20503;-48
2022/11/23 01:19:19;;;;;;;4.95;0.60;;;;;;;10.49;97.47;98789.25;8320831;28;20486;-48
2022/11/23 01:23:23;;;;;;;4.38;1.00;;;;;;;10.49;98.18;98794.66;8319538;28;20045;-48
2022/11/23 01:27:23;;;;;;;4.93;0.70;;;;;;;10.50;97.56;98798.22;8317351;28;20037;-51
2022/11/23 01:31:25;;;;;;;7.45;1.02;;;;;;;10.47;97.58;98803.97;8330674;28;20040;-48
2022/11/23 01:35:27;;;;;;;1.65;0.70;;;;;;;10.51;97.28;98808.84;8352389;28;20079;-48
2022/11/23 01:39:27;;;;;;;4.35;0.77;;;;;;;10.44;98.03;98813.28;8322102;28;20285;-49
2022/11/23 01:43:29;;;;;;;5.93;0.90;;;;;;;10.46;97.07;98815.81;8337373;28;20032;-48
2022/11/23 01:47:30;;;;;;;4.47;0.95;;;;;;;10.47;96.76;98820.19;8327415;28;20048;-48
2022/11/23 01:51:49;;;;;;;3.30;0.90;;;;;;;10.50;96.52;98817.13;8336121;28;20103;-48
2022/11/23 01:55:51;;;;;;;6.47;0.95;;;;;;;10.51;96.54;98830.44;8321131;28;20049;-48
2022/11/23 01:59:53;;;;;;;5.05;0.95;;;;;;;10.46;96.91;98824.75;8319801;28;20055;-50
2022/11/23 02:03:58;;;;;;;6.55;1.23;;;;;;;10.46;96.61;98843.66;8318895;28;20438;-48
2022/11/23 02:08:00;;;;;;;3.33;0.77;;;;;;;10.46;96.77;98838.25;8319801;28;20069;-51
2022/11/23 02:12:00;;;;;;;7.32;1.10;;;;;;;10.44;96.88;98840.31;8319279;28;20162;-47
2022/11/23 02:16:01;;;;;;;7.30;1.50;;;;;;;10.46;96.82;98838.25;8318672;28;20499;-48
2022/11/23 02:20:07;;;;;;;7.78;1.10;;;;;;;10.43;97.00;98835.91;8319721;28;20041;-48
2022/11/23 02:24:16;;;;;;;4.75;0.85;;;;;;;10.44;97.01;98842.16;8318307;28;20052;-48
2022/11/23 02:28:22;;;;;;;5.32;1.30;;;;;;;10.45;97.14;98833.03;8323878;28;20044;-51
2022/11/23 02:32:40;;;;;;;4.93;0.90;;;;;;;10.50;96.58;98839.59;8336182;28;20507;-48
2022/11/23 02:36:47;;;;;;;3.13;1.48;;;;;;;10.49;96.65;98831.66;8318558;28;20378;-48
2022/11/23 02:40:48;;;;;;;7.05;0.98;;;;;;;10.49;96.44;98831.66;8316419;28;20037;-49
2022/11/23 02:45:09;;;;;;;7.10;1.20;;;;;;;10.47;96.47;98837.25;8318775;28;20040;-48
2022/11/23 02:49:11;;;;;;;2.50;0.90;;;;;;;10.50;96.15;98847.69;8318639;28;20033;-48
2022/11/23 02:53:12;;;;;;;8.50;1.58;;;;;;;10.46;96.41;98842.84;8319682;28;20056;-48
2022/11/23 02:57:13;;;;;;;8.70;1.15;;;;;;;10.44;96.59;98840.31;8317905;28;20041;-49
2022/11/23 03:01:18;;;;;;;13.10;1.23;;;;;;;10.47;96.21;98839.94;8320531;28;20261;-50
2022/11/23 03:05:21;;;;;;;6.75;1.23;;;;;;;10.43;96.14;98838.59;8318983;28;20473;-49
2022/11/23 03:09:25;;;;;;;10.80;1.08;;;;;;;10.46;95.92;98843.66;8319056;28;20049;-49
2022/11/23 03:13:26;;;;;;;7.03;1.00;;;;;;;10.45;95.56;98844.69;8319431;28;20049;-50
2022/11/23 03:17:27;;;;;;;7.03;1.30;;;;;;;10.47;95.08;98839.94;8319706;28;20042;-51
2022/11/23 03:21:28;;;;;;;7.38;1.70;;;;;;;10.44;95.29;98845.72;8319853;28;20048;-51
2022/11/23 03:25:28;;;;;;;4.75;1.10;;;;;;;10.43;95.24;98844.00;8319324;28;20045;-50
2022/11/23 03:29:31;;;;;;;6.95;1.13;;;;;;;10.54;93.65;98843.59;8319856;28;20073;-50
2022/11/23 03:33:36;;;;;;;6.78;1.05;;;;;;;10.44;94.79;98850.25;8319196;28;20099;-50
2022/11/23 03:37:36;;;;;;;8.68;1.45;;;;;;;10.33;96.22;98858.78;8317878;28;20038;-50
2022/11/23 03:41:37;;;;;;;10.38;1.55;;;;;;;10.29;96.36;98852.91;8319393;28;20498;-49
2022/11/23 03:45:38;;;;;;;11.70;1.83;;;;;;;10.33;95.60;98856.94;8318741;28;20453;-48
2022/11/23 03:49:39;;;;;;;6.60;1.02;;;;;;;10.34;95.49;98858.59;8318591;28;20054;-49
2022/11/23 03:53:40;;;;;;;8.45;1.23;;;;;;;10.27;95.86;98859.53;8318532;28;20034;-49
2022/11/23 03:57:41;;;;;;;5.97;0.75;;;;;;;10.32;95.32;98852.56;8318572;28;20566;-48
2022/11/23 04:01:42;;;;;;;8.30;1.13;;;;;;;10.30;95.47;98853.72;8318726;28;20180;-49
2022/11/23 04:05:49;;;;;;;5.78;0.93;;;;;;;10.23;95.81;98853.63;8330673;28;20041;-49
2022/11/23 04:10:10;;;;;;;3.55;0.95;;;;;;;10.18;96.39;98856.00;8322162;28;20278;-49
2022/11/23 04:14:30;;;;;;;11.20;1.23;;;;;;;10.21;95.79;98860.22;8285107;28;20426;-48
2022/11/23 04:18:32;;;;;;;5.78;1.17;;;;;;;10.22;95.43;98862.75;8286181;28;20042;-48
2022/11/23 04:22:33;;;;;;;9.85;1.92;;;;;;;10.25;94.79;98862.41;8286854;28;20137;-48
2022/11/23 04:26:34;;;;;;;6.45;1.13;;;;;;;10.27;94.59;98862.22;8290829;28;20042;-49
2022/11/23 04:30:35;;;;;;;4.65;0.85;;;;;;;10.26;94.67;98861.38;8321171;28;20503;-49
2022/11/23 04:34:36;;;;;;;4.95;1.63;;;;;;;10.20;95.95;98858.53;8322824;28;20443;-48
2022/11/23 04:38:38;;;;;;;5.90;1.00;;;;;;;10.18;96.16;98866.81;8324039;28;20034;-50
2022/11/23 04:42:39;;;;;;;7.13;1.60;;;;;;;10.18;96.84;98863.28;8323711;28;20033;-48
2022/11/23 04:46:40;;;;;;;5.18;1.25;;;;;;;10.11;98.52;98871.25;8322685;28;20033;-49
2022/11/23 04:50:45;;;;;;;6.03;1.65;;;;;;;10.00;100.00;98864.34;8323476;28;20041;-48
2022/11/23 04:54:45;;;;;;;11.57;1.90;;;;;;;9.93;100.00;98867.94;8322597;28;20041;-48
2022/11/23 04:58:46;;;;;;;5.85;1.30;;;;;;;9.95;100.00;98871.31;8323474;28;20379;-48
2022/11/23 05:02:47;;;;;;;8.68;1.83;;;;;;;9.94;100.00;98864.22;8305665;28;20168;-49
2022/11/23 05:06:53;;;;;;;7.22;1.45;;;;;;;9.92;100.00;98866.28;8320267;28;20037;-48
2022/11/23 05:10:54;;;;;;;6.80;1.38;;;;;;;9.95;100.00;98865.91;8316985;28;20080;-49
2022/11/23 05:14:55;;;;;;;6.45;1.25;;;;;;;9.99;99.10;98867.25;8320465;28;20616;-50
2022/11/23 05:19:02;;;;;;;6.55;1.15;;;;;;;10.08;97.26;98865.34;8335329;28;20107;-50
2022/11/23 05:23:03;;;;;;;12.90;1.45;;;;;;;10.13;96.99;98865.69;8339317;28;20037;-49
2022/11/23 05:27:06;;;;;;;8.40;1.50;;;;;;;10.19;95.26;98863.13;8337770;28;20117;-49
2022/11/23 05:31:08;;;;;;;5.53;1.33;;;;;;;10.11;96.58;98871.25;8353321;28;20056;-50
2022/11/23 05:35:09;;;;;;;9.02;1.38;;;;;;;9.91;98.30;98870.81;8354270;28;20068;-49
2022/11/23 05:39:11;;;;;;;14.43;2.28;;;;;;;9.79;99.21;98872.22;8355046;28;20033;-49
2022/11/23 05:43:13;;;;;;;6.70;1.42;;;;;;;9.82;98.63;98877.28;8354981;28;20032;-49
2022/11/23 05:47:13;;;;;;;12.05;2.03;;;;;;;9.80;98.78;98875.78;8351739;28;22261;-48
2022/11/23 05:51:15;;;;;;;6.57;1.30;;;;;;;9.83;97.81;98873.53;8303115;28;20041;-48
2022/11/23 05:55:19;;;;;;;11.10;1.88;;;;;;;9.81;97.59;98877.44;8320680;28;20046;-48
2022/11/23 05:59:21;;;;;;;14.20;1.88;;;;;;;9.78;97.75;98869.69;8320346;28;20040;-48
2022/11/23 06:03:27;;;;;;;9.68;1.58;;;;;;;9.96;94.55;98867.59;8314802;28;20569;-49
2022/11/23 06:07:30;;;;;;;14.63;1.83;;;;;;;10.13;92.24;98871.94;8320640;28;20473;-49
2022/11/23 06:11:40;;;;;;;11.10;1.63;;;;;;;10.14;91.83;98870.91;8321574;28;20084;-50
2022/11/23 06:15:46;;;;;;;7.82;1.10;;;;;;;10.23;90.17;98872.53;8319076;28;20095;-49
2022/11/23 06:19:55;;;;;;;9.00;1.20;;;;;;;10.16;90.03;98868.88;8317665;28;20514;-48
2022/11/23 06:23:57;;;;;;;6.07;1.08;;;;;;;10.14;90.07;98881.69;8317069;28;20442;-50
2022/11/23 06:28:00;;;;;;;7.63;1.13;;;;;;;10.21;89.10;98887.25;8318042;28;20041;-49
2022/11/23 06:32:07;;;;;;;6.25;1.38;;;;;;;10.28;88.20;98899.81;8317770;28;20033;-48
2022/11/23 06:36:09;;;;;;;7.70;1.08;;;;;;;10.36;87.57;98886.28;8350737;28;20055;-49
2022/11/23 06:40:17;;;;;;;9.85;1.63;;;;;;;10.42;86.91;98885.56;8297801;28;20239;-51
2022/11/23 06:44:18;;;;;;;5.90;1.38;;;;;;;10.53;85.98;98882.47;8295285;28;20033;-51
2022/11/23 06:48:19;;;;;;;9.88;1.20;;;;;;;10.40;86.83;98893.00;8312818;28;20553;-49
2022/11/23 06:52:21;;;;;;;7.43;0.85;;;;;;;10.26;88.37;98879.41;8320035;28;20045;-49
2022/11/23 06:56:24;;;;;;;9.02;1.35;;;;;;;9.86;91.07;98877.78;8319529;28;20049;-49
2022/11/23 07:00:25;;;;;;;10.30;1.55;;;;;;;9.58;93.43;98895.44;8319855;28;20037;-50
2022/11/23 07:04:25;;;;;;;6.82;1.67;;;;;;;9.36;95.68;98905.09;8316311;28;20107;-48
2022/11/23 07:08:26;;;;;;;6.18;1.27;;;;;;;9.28;96.05;98915.06;8350406;28;20405;-52
2022/11/23 07:12:29;;;;;;;8.98;1.30;;;;;;;9.16;96.58;98922.66;8321084;28;20046;-49
2022/11/23 07:16:30;;;;;;;6.88;2.15;;;;;;;8.92;98.27;98919.13;8306669;28;20048;-51
2022/11/23 07:20:32;;;;;;;6.70;1.67;;;;;;;8.70;99.89;98919.81;8301366;28;20092;-49
2022/11/23 07:24:32;;;;;;;9.38;1.17;;;;;;;8.54;100.00;98919.81;8306392;28;20046;-49
2022/11/23 07:28:33;;;;;;;7.93;1.55;;;;;;;8.67;100.00;98931.78;8310706;28;20124;-50
2022/11/23 07:32:34;;;;;;;10.30;1.60;;;;;;;8.63;99.05;98932.28;8309943;28;20049;-49
2022/11/23 07:36:35;;;;;;;14.48;1.55;;;;;;;8.60;99.04;98930.75;8319245;28;20057;-53
2022/11/23 07:40:38;;;;;;;8.50;1.45;;;;;;;8.65;99.16;98938.31;8308928;28;20046;-52
2022/11/23 07:44:39;;;;;;;10.57;1.98;;;;;;;8.68;98.52;98943.38;8317781;28;20463;-49
2022/11/23 07:48:43;;;;;;;14.93;1.70;;;;;;;8.75;98.13;98944.41;8344097;28;20041;-51
2022/11/23 07:52:43;;;;;;;9.27;1.48;;;;;;;8.88;96.91;98942.88;8322619;28;20052;-48
2022/11/23 07:56:44;;;;;;;15.02;2.83;;;;;;;8.95;96.83;98945.75;8316353;28;20134;-49
2022/11/23 08:00:45;;;;;;;9.75;2.30;;;;;;;9.03;96.32;98948.47;8325762;28;20045;-48
2022/11/23 08:04:46;;;;;;;16.48;2.45;;;;;;;9.09;96.26;98955.88;8323658;28;20041;-49
2022/11/23 08:08:46;;;;;;;10.27;2.10;;;;;;;9.17;96.11;98955.84;8304521;28;20557;-50
2022/11/23 08:12:47;;;;;;;12.50;2.60;;;;;;;9.33;95.63;98955.84;8317687;28;20512;-48
2022/11/23 08:16:49;;;;;;;13.20;2.45;;;;;;;9.43;94.53;98957.31;8324461;28;20117;-48
2022/11/23 08:20:50;;;;;;;7.68;1.95;;;;;;;9.56;93.81;98956.78;8356896;28;20038;-49
2022/11/23 08:24:50;;;;;;;10.60;1.80;;;;;;;9.75;92.47;98957.25;8323419;28;20525;-49
2022/11/23 08:28:51;;;;;;;16.15;2.10;;;;;;;9.90;91.14;98955.50;8323666;28;20518;-53
2022/11/23 08:32:52;;;;;;;7.63;2.42;;;;;;;10.27;89.14;98952.16;8326037;28;20065;-53
2022/11/23 08:36:52;;;;;;;14.73;2.03;;;;;;;11.40;83.54;98944.88;8320690;28;20406;-52
2022/11/23 08:40:57;;;;;;;14.50;2.30;;;;;;;11.95;80.54;98958.00;8309366;28;20482;-52
2022/11/23 08:44:59;;;;;;;9.20;1.95;;;;;;;12.35;78.25;98954.78;8297394;28;20037;-50
2022/11/23 08:48:59;;;;;;;9.85;2.28;;;;;;;11.59;79.96;98974.09;8293021;28;20053;-51
2022/11/23 08:53:00;;;;;;;10.70;2.03;;;;;;;10.67;84.11;98970.00;8290440;28;20045;-49
2022/11/23 08:57:01;;;;;;;10.00;2.15;;;;;;;10.45;86.32;98966.25;8320732;28;20052;-49
2022/11/23 09:01:06;;;;;;;7.80;1.67;;;;;;;10.39;87.08;98972.34;8323871;28;20030;-49
2022/11/23 09:05:07;;;;;;;13.98;3.13;;;;;;;10.32;87.89;98982.19;8323317;28;20026;-52
2022/11/23 09:09:07;;;;;;;13.20;1.92;;;;;;;10.25;88.34;98964.16;8322782;28;20068;-53
2022/11/23 09:13:08;;;;;;;8.35;1.65;;;;;;;10.32;87.61;98959.75;8303752;28;20076;-52
2022/11/23 09:17:09;;;;;;;6.80;1.85;;;;;;;10.72;85.34;98979.25;8322520;28;20069;-53
2022/11/23 09:21:10;;;;;;;9.23;2.15;;;;;;;10.79;84.32;98964.00;8307065;28;20415;-49
2022/11/23 09:25:11;;;;;;;10.63;1.92;;;;;;;12.32;79.07;98967.88;8321816;28;20042;-51
2022/11/23 09:29:11;;;;;;;9.20;1.95;;;;;;;13.81;73.04;98965.81;8322529;28;20042;-50
2022/11/23 09:33:13;;;;;;;8.75;2.30;;;;;;;14.45;69.76;98959.06;8322247;28;20045;-50
2022/11/23 09:37:14;;;;;;;13.13;1.98;;;;;;;14.78;68.72;98970.06;8321265;28;20033;-49
2022/11/23 09:41:54;;;;;;;11.40;2.10;;;;;;;13.67;69.58;98974.91;8315382;28;20030;-52
2022/11/23 09:46:02;;;;;;;6.78;1.30;;;;;;;12.99;69.22;98970.13;8309867;28;20495;-49
2022/11/23 09:50:15;;;;;;;13.50;1.45;;;;;;;13.00;69.71;98970.97;8320954;28;20041;-50
2022/11/23 09:54:31;;;;;;;16.00;1.83;;;;;;;12.51;71.04;98981.69;8321750;28;20506;-53
2022/11/23 09:58:38;;;;;;;13.27;1.42;;;;;;;11.93;72.78;98975.47;8313199;28;20037;-49
2022/11/23 10:02:39;;;;;;;10.57;0.98;;;;;;;11.80;73.53;98979.66;8320842;28;20045;-49
2022/11/23 10:06:42;;;;;;;11.43;2.33;;;;;;;11.75;74.89;98979.38;8318826;28;20041;-51
2022/11/23 10:11:05;;;;;;;11.32;1.80;;;;;;;11.86;74.58;98962.69;8320159;28;20045;-50
2022/11/23 10:15:27;;;;;;;9.77;1.23;;;;;;;14.20;67.93;98949.72;8318851;28;20052;-50
2022/11/23 10:19:59;;;;;;;7.93;1.48;;;;;;;15.54;63.55;98934.16;8306707;28;20107;-50
2022/11/23 10:28:22;;;;;;;5.70;1.23;;;;;;;16.47;61.25;98914.66;8342436;27;20396;-48
2022/11/23 10:32:36;;;;;;;8.30;1.10;;;;;;;16.44;60.35;98904.19;8334482;28;20048;-48
2022/11/23 10:36:38;;;;;;;5.35;1.17;;;;;;;16.35;60.87;98905.44;8360840;28;20474;-49
2022/11/23 10:40:44;;;;;;;6.15;1.00;;;;;;;15.77;61.83;98902.69;8344735;28;20045;-50
2022/11/23 10:44:48;;;;;;;5.57;0.90;;;;;;;15.66;62.25;98892.47;8334916;28;20041;-49
2022/11/23 10:48:50;;;;;;;7.55;1.58;;;;;;;15.94;62.09;98880.41;8346307;28;20229;-49
2022/11/23 10:52:55;;;;;;;5.07;1.10;;;;;;;16.11;62.52;98881.63;8330257;28;20032;-50
2022/11/23 10:56:58;;;;;;;5.72;0.95;;;;;;;16.10;60.63;98871.78;8284174;28;20065;-48
2022/11/23 11:01:05;;;;;;;8.20;1.23;;;;;;;14.83;63.97;98859.59;8312231;28;20042;-50
2022/11/23 11:05:28;;;;;;;7.00;1.27;;;;;;;14.29;66.05;98867.00;8338671;28;20048;-49
2022/11/23 11:09:30;;;;;;;9.77;1.50;;;;;;;13.63;68.15;98875.84;8327988;28;20518;-50
2022/11/23 11:13:40;;;;;;;7.32;1.10;;;;;;;12.80;72.04;98873.13;8341606;28;20063;-50
2022/11/23 11:17:41;;;;;;;10.40;1.40;;;;;;;12.93;73.20;98872.41;8343773;28;20504;-49
2022/11/23 11:21:42;;;;;;;6.70;1.65;;;;;;;12.71;73.44;98863.44;8345799;28;20053;-52
2022/11/23 11:25:43;;;;;;;10.70;1.70;;;;;;;12.40;75.63;98859.34;8335223;28;20058;-48
2022/11/23 11:34:25;;;;;;;4.85;1.15;;;;;;;12.12;76.37;98866.56;8380097;28;20353;-48
2022/11/23 11:38:32;;;;;;;7.38;1.55;;;;;;;11.90;77.57;98857.56;8379470;28;20044;-47
2022/11/23 11:42:39;;;;;;;8.48;1.50;;;;;;;12.24;75.74;98854.19;8348231;28;20156;-50
2022/11/23 11:46:46;;;;;;;10.20;1.50;;;;;;;12.40;75.28;98856.66;8346099;28;20033;-49
2022/11/23 11:50:55;;;;;;;6.18;1.20;;;;;;;12.37;74.83;98854.31;8345327;28;20511;-49
2022/11/23 11:59:27;;;;;;;3.95;1.10;;;;;;;12.15;75.89;98866.19;8343253;27;20513;-47
2022/11/23 12:03:40;;;;;;;9.43;1.27;;;;;;;13.07;73.55;98866.06;8295577;28;20037;-47
2022/11/23 12:08:05;;;;;;;7.55;1.25;;;;;;;13.73;70.22;98857.34;8344137;28;20033;-47
2022/11/23 12:12:14;;;;;;;6.40;1.10;;;;;;;13.49;70.08;98849.69;8345496;28;20037;-48
2022/11/23 12:20:46;;;;;;;3.42;0.90;;;;;;;14.21;67.97;98841.88;8309135;27;1213806;-47
2022/11/23 12:29:31;;;;;;;4.75;1.00;;;;;;;13.55;68.93;98811.69;8350388;28;20396;-47
2022/11/23 12:34:05;;;;;;;5.05;1.05;;;;;;;12.70;72.10;98801.28;8331546;28;20049;-47
2022/11/23 12:38:29;;;;;;;3.20;1.23;;;;;;;12.66;71.14;98794.56;8313022;28;20040;-49
2022/11/23 12:42:49;;;;;;;10.00;1.92;;;;;;;12.60;71.70;98781.81;8312354;28;20407;-49
2022/11/23 12:47:07;;;;;;;5.32;1.10;;;;;;;12.53;71.35;98783.63;8313553;28;20038;-49
2022/11/23 12:51:47;;;;;;;7.25;1.42;;;;;;;12.51;72.77;98769.41;8310437;28;20112;-48
2022/11/23 13:00:12;;;;;;;5.93;1.10;;;;;;;12.39;73.05;98765.56;8316749;28;20393;-49
2022/11/23 13:04:48;;;;;;;4.95;1.00;;;;;;;12.36;73.12;98766.78;8285581;28;20414;-51
2022/11/23 13:09:16;;;;;;;5.15;1.00;;;;;;;12.22;73.10;98753.28;8267451;28;20597;-48
2022/11/23 13:13:44;;;;;;;15.32;2.38;;;;;;;12.35;72.70;98770.50;8270429;28;20625;-48
2022/11/23 13:18:14;;;;;;;6.65;1.17;;;;;;;12.34;74.30;98768.00;8278532;28;20061;-49
2022/11/23 13:22:18;;;;;;;4.43;1.10;;;;;;;11.98;75.71;98765.34;8278579;28;20535;-49
2022/11/23 13:26:21;;;;;;;;;;;;;;;11.88;76.44;98752.16;8278936;28;20525;-48
2022/11/23 13:30:40;;;;;;;6.68;1.45;;;;;;;11.75;76.24;98762.81;8279427;28;19932;-48
2022/11/23 13:34:44;;;;;;;6.00;1.55;;;;;;;11.84;76.01;98758.94;8278442;28;20054;-49
2022/11/23 13:38:45;;;;;;;3.13;1.33;;;;;;;11.66;77.02;98747.75;8279076;28;20085;-49
2022/11/23 13:42:46;;;;;;;5.40;1.45;;;;;;;11.45;78.53;98755.78;8278842;28;20043;-50
2022/11/23 13:46:58;;;;;;;6.47;1.40;;;;;;;11.38;79.22;98751.31;8279214;28;20041;-49
2022/11/23 13:51:01;;;;;;;7.45;1.23;;;;;;;11.44;78.28;98742.44;8278793;28;20569;-50
2022/11/23 14:03:55;;;;;;;6.53;1.65;;;;;;;11.47;78.98;98732.03;8412198;27;20928;-51
2022/11/23 14:07:59;;;;;;;6.97;2.03;;;;;;;11.42;79.62;98739.91;8378028;28;20594;-48
2022/11/23 14:12:35;;;;;;;3.90;1.77;;;;;;;11.37;79.96;98734.22;8376859;28;20044;-52
2022/11/23 14:17:16;;;;;;;4.95;1.40;;;;;;;11.32;80.03;98733.94;8358042;28;20119;-51
2022/11/23 14:21:35;;;;;;;7.25;2.10;;;;;;;11.38;79.92;98741.28;8375836;28;20037;-51
2022/11/23 14:26:15;;;;;;;6.90;2.20;;;;;;;11.36;79.52;98737.97;8376421;28;20041;-50
2022/11/23 14:30:27;;;;;;;8.23;1.70;;;;;;;11.29;80.12;98739.72;8376274;28;20482;-50
2022/11/23 14:34:44;;;;;;;6.97;2.33;;;;;;;11.08;81.27;98736.97;8372578;28;20049;-48
2022/11/23 14:43:18;;;;;;;7.78;1.40;;;;;;;11.21;82.66;98760.63;8412082;27;20389;-48
2022/11/23 14:47:29;;;;;;;9.35;2.10;;;;;;;10.83;86.35;98762.56;8410615;28;20040;-49
2022/11/23 14:51:30;;;;;;;8.90;2.05;;;;;;;10.67;87.46;98792.47;8424043;28;20564;-49
2022/11/23 14:55:31;;;;;;;6.70;1.65;;;;;;;10.64;86.06;98795.53;8409726;28;20125;-49
2022/11/23 14:59:37;;;;;;;8.38;1.52;;;;;;;10.67;85.94;98787.06;8410239;28;20043;-48
2022/11/23 15:03:39;;;;;;;8.85;2.30;;;;;;;10.53;88.71;98793.28;8409739;28;20087;-49
2022/11/23 15:07:57;;;;;;;4.95;1.92;;;;;;;10.45;88.57;98804.16;8385403;28;20063;-49
2022/11/23 15:12:18;;;;;;;8.95;2.25;;;;;;;10.42;90.65;98820.72;8367494;28;20395;-49
2022/11/23 15:16:21;;;;;;;10.23;2.42;;;;;;;10.32;91.02;98830.94;8401676;28;20508;-49
2022/11/23 15:20:25;;;;;;;7.70;1.50;;;;;;;10.30;93.17;98853.72;8366369;28;20443;-48
2022/11/23 15:24:27;;;;;;;12.48;1.98;;;;;;;10.20;94.71;98867.47;8395590;28;20055;-49
2022/11/23 15:28:31;;;;;;;9.57;1.40;;;;;;;9.99;98.85;98878.03;8372364;28;20413;-49
2022/11/23 15:32:32;;;;;;;9.03;3.17;;;;;;;9.89;100.00;98874.72;8403484;28;20044;-50
2022/11/23 15:36:37;;;;;;;14.35;3.85;;;;;;;9.75;100.00;98880.84;8388701;28;20065;-50
2022/11/23 15:40:41;;;;;;;7.28;1.83;;;;;;;9.76;100.00;98887.94;8371196;28;20036;-49
2022/11/23 15:44:42;;;;;;;;;;;;;;;9.71;100.00;98899.25;8417077;28;20040;-51
2022/11/23 15:48:49;;;;;;;8.93;1.65;;;;;;;9.63;100.00;98906.53;8409417;28;19920;-50
2022/11/23 15:52:50;;;;;;;7.68;2.08;;;;;;;9.51;100.00;98916.84;8388871;28;20067;-51
2022/11/23 15:56:57;;;;;;;10.15;2.20;;;;;;;9.43;100.00;98914.16;8354653;28;20029;-50
2022/11/23 16:01:06;;;;;;;4.72;2.22;;;;;;;9.36;100.00;98923.13;8382223;28;20303;-49
2022/11/23 16:05:20;;;;;;;7.30;2.30;;;;;;;9.33;100.00;98926.19;8383824;28;20060;-51
2022/11/23 16:09:42;;;;;;;12.25;2.85;;;;;;;9.24;100.00;98941.50;8386120;28;20498;-53
2022/11/23 16:13:44;;;;;;;9.05;4.05;;;;;;;9.24;100.00;98940.69;8378626;28;20411;-52
2022/11/23 16:17:45;;;;;;;14.43;3.70;;;;;;;9.24;100.00;98956.88;8352296;28;20033;-50
2022/11/23 16:21:46;;;;;;;12.68;3.58;;;;;;;9.28;100.00;98963.59;8361826;28;20344;-50
2022/11/23 16:26:04;;;;;;;6.32;1.60;;;;;;;9.26;100.00;98976.41;8369117;28;20044;-52
2022/11/23 16:30:06;;;;;;;11.55;1.77;;;;;;;9.33;100.00;98977.41;8369604;28;20083;-53
2022/11/23 16:34:16;;;;;;;6.57;1.45;;;;;;;9.44;100.00;98979.75;8340654;28;20041;-51
2022/11/23 16:38:17;;;;;;;5.55;1.73;;;;;;;9.40;100.00;98983.81;8342085;28;20030;-51
2022/11/23 16:42:18;;;;;;;4.72;1.08;;;;;;;9.36;100.00;98982.44;8329795;28;20056;-51
2022/11/23 16:46:19;;;;;;;6.05;1.23;;;;;;;9.33;100.00;98999.00;8350807;28;20533;-55
2022/11/23 16:50:20;;;;;;;3.17;1.20;;;;;;;9.29;100.00;98992.22;8334624;28;20037;-53
2022/11/23 16:54:21;;;;;;;5.55;1.45;;;;;;;9.17;100.00;98999.84;8351083;28;20048;-52
2022/11/23 16:58:23;;;;;;;4.90;0.98;;;;;;;9.19;100.00;98994.28;8351156;28;20320;-51
2022/11/23 17:02:24;;;;;;;18.90;7.00;;;;;;;9.10;100.00;98989.88;8352506;28;20033;-50
2022/11/23 17:06:25;;;;;;;5.45;2.30;;;;;;;9.14;100.00;98996.63;8350728;28;20135;-50
2022/11/23 17:10:25;;;;;;;1.75;0.98;;;;;;;9.10;100.00;99001.53;8367392;28;20041;-50
2022/11/23 17:14:26;;;;;;;3.10;0.98;;;;;;;9.07;100.00;99011.78;8352022;28;20044;-50
2022/11/23 17:18:27;;;;;;;2.35;0.95;;;;;;;9.08;100.00;99021.53;8350071;28;20056;-51
2022/11/23 17:22:27;;;;;;;10.55;5.07;;;;;;;9.14;100.00;99031.66;8351674;28;20133;-51
2022/11/23 17:26:33;;;;;;;7.55;1.27;;;;;;;9.01;100.00;99036.72;8342966;28;20044;-50
2022/11/23 17:30:34;;;;;;;11.90;5.35;;;;;;;8.94;100.00;99023.06;8352721;28;20083;-50
2022/11/23 17:34:35;;;;;;;17.88;7.05;;;;;;;8.97;100.00;99035.38;8366111;28;20037;-51
2022/11/23 17:38:37;;;;;;;15.57;6.93;;;;;;;8.99;100.00;99038.72;8384293;28;20035;-52
2022/11/23 17:42:37;;;;;;;19.08;6.78;;;;;;;8.96;100.00;99034.50;8367274;28;20045;-51
2022/11/23 17:47:27;;;;;;;8.43;3.45;;;;;;;8.93;100.00;99052.84;8335332;28;20873;-51
2022/11/23 17:51:28;;;;;;;13.10;5.35;;;;;;;8.92;100.00;99053.88;8340777;28;20040;-51
2022/11/23 17:55:29;;;;;;;10.98;4.55;;;;;;;8.89;100.00;99046.13;8350334;28;20504;-51
2022/11/23 17:59:29;;;;;;;30.55;12.52;;;;;;;8.85;100.00;99060.94;8350685;28;20108;-50
2022/11/23 18:03:30;;;;;;;15.02;8.88;;;;;;;8.83;100.00;99077.28;8351230;28;20059;-51
2022/11/23 18:07:31;;;;;;;15.80;9.98;;;;;;;8.85;100.00;99085.19;8349174;28;20080;-51
2022/11/23 18:11:32;;;;;;;14.32;6.60;;;;;;;8.77;100.00;99083.31;8351042;28;20067;-51
2022/11/23 18:15:32;;;;;;;65.35;20.83;;;;;;;8.74;100.00;99091.72;8349448;28;20048;-52
2022/11/23 18:19:33;;;;;;;10.35;6.88;;;;;;;8.73;100.00;99097.28;8349084;28;20041;-50
2022/11/23 18:23:33;;;;;;;9.52;4.53;;;;;;;8.70;100.00;99103.84;8348544;28;20069;-51
2022/11/23 18:27:34;;;;;;;4.53;2.53;;;;;;;8.68;100.00;99110.41;8342677;28;20052;-50
2022/11/23 18:31:35;;;;;;;8.52;4.38;;;;;;;8.64;100.00;99109.03;8342600;28;20045;-50
2022/11/23 18:35:35;;;;;;;7.63;4.72;;;;;;;8.60;100.00;99115.78;8337165;28;20044;-52
2022/11/23 18:39:36;;;;;;;12.23;5.07;;;;;;;8.54;100.00;99135.28;8341087;28;20037;-51
2022/11/23 18:43:37;;;;;;;8.13;5.55;;;;;;;8.42;100.00;99126.59;8350245;28;20050;-51
2022/11/23 18:47:38;;;;;;;38.50;18.58;;;;;;;8.31;100.00;99128.75;8350435;28;20048;-50
2022/11/23 18:51:38;;;;;;;72.70;32.25;;;;;;;8.19;100.00;99140.75;8350254;28;20071;-52
2022/11/23 18:55:39;;;;;;;15.18;7.50;;;;;;;8.08;100.00;99144.56;8350245;28;20045;-54
2022/11/23 18:59:39;;;;;;;11.63;7.18;;;;;;;8.00;100.00;99164.19;8350024;28;20041;-51
2022/11/23 19:03:41;;;;;;;9.88;4.03;;;;;;;7.87;100.00;99173.69;8349013;28;20450;-50
2022/11/23 19:07:41;;;;;;;12.77;8.60;;;;;;;7.62;100.00;99167.25;8315826;28;20037;-50
2022/11/23 19:11:42;;;;;;;5.03;3.85;;;;;;;7.60;100.00;99173.78;8357092;28;20067;-50
2022/11/23 19:15:43;;;;;;;5.10;4.00;;;;;;;7.42;100.00;99173.81;8335770;28;20041;-50
2022/11/23 19:19:43;;;;;;;6.85;4.00;;;;;;;7.33;100.00;99188.16;8317561;28;20082;-51
2022/11/23 19:23:49;;;;;;;3.72;3.05;;;;;;;7.34;100.00;99187.16;8332569;28;20053;-50
2022/11/23 19:27:50;;;;;;;4.82;3.58;;;;;;;7.31;100.00;99197.34;8338556;28;20049;-52
2022/11/23 19:31:53;;;;;;;6.03;3.45;;;;;;;7.37;100.00;99197.59;8342358;28;20071;-52
2022/11/23 19:35:53;;;;;;;12.48;7.75;;;;;;;7.47;100.00;99209.13;8340353;28;20033;-51
2022/11/23 19:39:55;;;;;;;8.65;4.75;;;;;;;7.50;100.00;99207.97;8343294;28;20033;-51
2022/11/23 19:43:57;;;;;;;6.85;4.40;;;;;;;7.53;100.00;99218.41;8334714;28;20170;-51
2022/11/23 19:47:58;;;;;;;19.20;8.80;;;;;;;7.54;100.00;99220.94;8343562;28;20033;-50
2022/11/23 19:51:59;;;;;;;15.27;6.68;;;;;;;7.42;100.00;99232.94;8347306;28;20040;-51